sensor_id;sensor_type;location;lat;lon;timestamp;temperature;humidity
11609;DHT22;5860;52.018;8.536;2023-06-05T00:00:10;12.40;99.90
11609;DHT22;5860;52.018;8.536;2023-06-05T00:02:38;12.30;99.90
11609;DHT22;5860;52.018;8.536;2023-06-05T00:05:05;12.30;99.90
11609;DHT22;5860;52.018;8.536;2023-06-05T00:07:36;12.20;99.90
11609;DHT22;5860;52.018;8.536;2023-06-05T00:10:07;12.20;99.90
11609;DHT22;5860;52.018;8.536;2023-06-05T00:12:35;12.10;99.90
11609;DHT22;5860;52.018;8.536;2023-06-05T00:15:03;12.10;99.90
11609;DHT22;5860;52.018;8.536;2023-06-05T00:17:31;12.10;99.90
11609;DHT22;5860;52.018;8.536;2023-06-05T00:19:59;12.00;99.90
11609;DHT22;5860;52.018;8.536;2023-06-05T00:22:27;12.00;99.90
11609;DHT22;5860;52.018;8.536;2023-06-05T00:24:55;11.90;99.90
11609;DHT22;5860;52.018;8.536;2023-06-05T00:27:22;11.80;99.90
11609;DHT22;5860;52.018;8.536;2023-06-05T00:29:49;11.70;99.90
11609;DHT22;5860;52.018;8.536;2023-06-05T00:32:16;11.60;99.90
11609;DHT22;5860;52.018;8.536;2023-06-05T00:34:43;11.50;99.90
11609;DHT22;5860;52.018;8.536;2023-06-05T00:37:11;11.50;99.90
11609;DHT22;5860;52.018;8.536;2023-06-05T00:39:40;11.50;99.90
11609;DHT22;5860;52.018;8.536;2023-06-05T00:42:07;11.40;99.90
11609;DHT22;5860;52.018;8.536;2023-06-05T00:44:37;11.30;99.90
11609;DHT22;5860;52.018;8.536;2023-06-05T00:47:04;11.20;99.90
11609;DHT22;5860;52.018;8.536;2023-06-05T00:49:32;11.30;99.90
11609;DHT22;5860;52.018;8.536;2023-06-05T00:51:59;11.30;99.90
11609;DHT22;5860;52.018;8.536;2023-06-05T00:54:26;11.20;99.90
11609;DHT22;5860;52.018;8.536;2023-06-05T00:56:55;11.20;99.90
11609;DHT22;5860;52.018;8.536;2023-06-05T00:59:22;11.20;99.90
11609;DHT22;5860;52.018;8.536;2023-06-05T01:01:49;11.20;99.90
11609;DHT22;5860;52.018;8.536;2023-06-05T01:04:17;11.20;99.90
11609;DHT22;5860;52.018;8.536;2023-06-05T01:06:44;11.10;99.90
11609;DHT22;5860;52.018;8.536;2023-06-05T01:09:12;11.00;99.90
11609;DHT22;5860;52.018;8.536;2023-06-05T01:14:21;11.00;99.90
11609;DHT22;5860;52.018;8.536;2023-06-05T01:16:50;11.00;99.90
11609;DHT22;5860;52.018;8.536;2023-06-05T01:19:21;10.90;99.90
11609;DHT22;5860;52.018;8.536;2023-06-05T01:21:52;10.90;99.90
11609;DHT22;5860;52.018;8.536;2023-06-05T01:24:19;10.90;99.90
11609;DHT22;5860;52.018;8.536;2023-06-05T01:30:05;10.90;99.90
11609;DHT22;5860;52.018;8.536;2023-06-05T01:35:22;10.90;99.90
11609;DHT22;5860;52.018;8.536;2023-06-05T01:37:56;10.90;99.90
11609;DHT22;5860;52.018;8.536;2023-06-05T01:40:26;10.80;99.90
11609;DHT22;5860;52.018;8.536;2023-06-05T01:42:54;10.80;99.90
11609;DHT22;5860;52.018;8.536;2023-06-05T01:45:22;10.80;99.90
11609;DHT22;5860;52.018;8.536;2023-06-05T01:47:50;10.80;99.90
11609;DHT22;5860;52.018;8.536;2023-06-05T01:50:18;10.80;99.90
11609;DHT22;5860;52.018;8.536;2023-06-05T01:52:46;10.80;99.90
11609;DHT22;5860;52.018;8.536;2023-06-05T01:55:18;10.70;99.90
11609;DHT22;5860;52.018;8.536;2023-06-05T01:57:47;10.70;99.90
11609;DHT22;5860;52.018;8.536;2023-06-05T02:00:14;10.70;99.90
11609;DHT22;5860;52.018;8.536;2023-06-05T02:02:43;10.70;99.90
11609;DHT22;5860;52.018;8.536;2023-06-05T02:05:12;10.70;99.90
11609;DHT22;5860;52.018;8.536;2023-06-05T02:07:40;10.60;99.90
11609;DHT22;5860;52.018;8.536;2023-06-05T02:10:08;10.60;99.90
11609;DHT22;5860;52.018;8.536;2023-06-05T02:12:36;10.60;99.90
11609;DHT22;5860;52.018;8.536;2023-06-05T02:15:08;10.40;99.90
11609;DHT22;5860;52.018;8.536;2023-06-05T02:17:43;10.40;99.90
11609;DHT22;5860;52.018;8.536;2023-06-05T02:20:19;10.40;99.90
11609;DHT22;5860;52.018;8.536;2023-06-05T02:22:46;10.40;99.90
11609;DHT22;5860;52.018;8.536;2023-06-05T02:25:16;10.30;99.90
11609;DHT22;5860;52.018;8.536;2023-06-05T02:27:44;10.30;99.90
11609;DHT22;5860;52.018;8.536;2023-06-05T02:30:11;10.30;99.90
11609;DHT22;5860;52.018;8.536;2023-06-05T02:32:39;10.30;99.90
11609;DHT22;5860;52.018;8.536;2023-06-05T02:35:11;10.30;99.90
11609;DHT22;5860;52.018;8.536;2023-06-05T02:37:39;10.20;99.90
11609;DHT22;5860;52.018;8.536;2023-06-05T02:40:14;10.20;99.90
11609;DHT22;5860;52.018;8.536;2023-06-05T02:42:41;10.20;99.90
11609;DHT22;5860;52.018;8.536;2023-06-05T02:45:09;10.20;99.90
11609;DHT22;5860;52.018;8.536;2023-06-05T02:47:36;10.10;99.90
11609;DHT22;5860;52.018;8.536;2023-06-05T02:50:03;10.00;99.90
11609;DHT22;5860;52.018;8.536;2023-06-05T02:52:30;10.10;99.90
11609;DHT22;5860;52.018;8.536;2023-06-05T02:55:04;10.10;99.90
11609;DHT22;5860;52.018;8.536;2023-06-05T02:57:33;10.10;99.90
11609;DHT22;5860;52.018;8.536;2023-06-05T03:00:09;10.00;99.90
11609;DHT22;5860;52.018;8.536;2023-06-05T03:02:41;10.00;99.90
11609;DHT22;5860;52.018;8.536;2023-06-05T03:05:08;10.00;99.90
11609;DHT22;5860;52.018;8.536;2023-06-05T03:07:35;10.00;99.90
11609;DHT22;5860;52.018;8.536;2023-06-05T03:10:03;10.00;99.90
11609;DHT22;5860;52.018;8.536;2023-06-05T03:12:30;10.00;99.90
11609;DHT22;5860;52.018;8.536;2023-06-05T03:14:57;10.00;99.90
11609;DHT22;5860;52.018;8.536;2023-06-05T03:17:24;10.00;99.90
11609;DHT22;5860;52.018;8.536;2023-06-05T03:22:21;10.00;99.90
11609;DHT22;5860;52.018;8.536;2023-06-05T03:24:49;10.30;99.90
11609;DHT22;5860;52.018;8.536;2023-06-05T03:27:19;9.90;99.90
11609;DHT22;5860;52.018;8.536;2023-06-05T03:29:46;10.00;99.90
11609;DHT22;5860;52.018;8.536;2023-06-05T03:32:13;10.00;99.90
11609;DHT22;5860;52.018;8.536;2023-06-05T03:34:40;9.90;99.90
11609;DHT22;5860;52.018;8.536;2023-06-05T03:37:09;9.90;99.90
11609;DHT22;5860;52.018;8.536;2023-06-05T03:39:37;9.90;99.90
11609;DHT22;5860;52.018;8.536;2023-06-05T03:42:16;9.90;99.90
11609;DHT22;5860;52.018;8.536;2023-06-05T03:44:43;10.10;99.90
11609;DHT22;5860;52.018;8.536;2023-06-05T03:47:10;10.10;99.90
11609;DHT22;5860;52.018;8.536;2023-06-05T03:49:37;10.20;99.90
11609;DHT22;5860;52.018;8.536;2023-06-05T03:52:04;10.20;99.90
11609;DHT22;5860;52.018;8.536;2023-06-05T03:54:31;10.30;99.90
11609;DHT22;5860;52.018;8.536;2023-06-05T03:56:59;11.20;99.90
11609;DHT22;5860;52.018;8.536;2023-06-05T03:59:27;12.20;99.90
11609;DHT22;5860;52.018;8.536;2023-06-05T04:01:56;11.80;99.90
11609;DHT22;5860;52.018;8.536;2023-06-05T04:04:23;12.10;99.90
11609;DHT22;5860;52.018;8.536;2023-06-05T04:06:53;12.80;99.90
11609;DHT22;5860;52.018;8.536;2023-06-05T04:09:20;13.70;99.90
11609;DHT22;5860;52.018;8.536;2023-06-05T04:11:47;14.40;99.90
11609;DHT22;5860;52.018;8.536;2023-06-05T04:14:16;14.60;99.90
11609;DHT22;5860;52.018;8.536;2023-06-05T04:16:43;14.70;99.90
11609;DHT22;5860;52.018;8.536;2023-06-05T04:19:11;14.70;99.90
11609;DHT22;5860;52.018;8.536;2023-06-05T04:21:40;14.60;99.90
11609;DHT22;5860;52.018;8.536;2023-06-05T04:24:08;15.10;99.90
11609;DHT22;5860;52.018;8.536;2023-06-05T04:26:39;15.00;99.90
11609;DHT22;5860;52.018;8.536;2023-06-05T04:29:08;14.70;99.90
11609;DHT22;5860;52.018;8.536;2023-06-05T04:31:44;16.10;99.90
11609;DHT22;5860;52.018;8.536;2023-06-05T04:34:12;16.30;99.90
11609;DHT22;5860;52.018;8.536;2023-06-05T04:36:40;16.30;99.90
11609;DHT22;5860;52.018;8.536;2023-06-05T04:39:07;16.70;99.90
11609;DHT22;5860;52.018;8.536;2023-06-05T04:41:42;16.30;99.90
11609;DHT22;5860;52.018;8.536;2023-06-05T04:44:16;17.10;99.90
11609;DHT22;5860;52.018;8.536;2023-06-05T04:46:44;16.20;99.90
11609;DHT22;5860;52.018;8.536;2023-06-05T04:49:12;16.10;99.90
11609;DHT22;5860;52.018;8.536;2023-06-05T04:51:40;17.20;99.90
11609;DHT22;5860;52.018;8.536;2023-06-05T04:54:07;16.70;99.90
11609;DHT22;5860;52.018;8.536;2023-06-05T04:56:35;16.90;99.90
11609;DHT22;5860;52.018;8.536;2023-06-05T04:59:02;17.70;99.90
11609;DHT22;5860;52.018;8.536;2023-06-05T05:01:32;17.60;99.90
11609;DHT22;5860;52.018;8.536;2023-06-05T05:03:59;17.40;99.90
11609;DHT22;5860;52.018;8.536;2023-06-05T05:06:26;17.70;99.90
11609;DHT22;5860;52.018;8.536;2023-06-05T05:08:54;18.00;99.90
11609;DHT22;5860;52.018;8.536;2023-06-05T05:11:21;18.70;99.90
11609;DHT22;5860;52.018;8.536;2023-06-05T05:13:48;19.20;99.90
11609;DHT22;5860;52.018;8.536;2023-06-05T05:16:15;18.80;99.90
11609;DHT22;5860;52.018;8.536;2023-06-05T05:18:44;18.30;99.90
11609;DHT22;5860;52.018;8.536;2023-06-05T05:21:12;18.70;99.90
11609;DHT22;5860;52.018;8.536;2023-06-05T05:23:39;19.40;99.90
11609;DHT22;5860;52.018;8.536;2023-06-05T05:26:07;18.70;99.90
11609;DHT22;5860;52.018;8.536;2023-06-05T05:28:34;20.30;99.90
11609;DHT22;5860;52.018;8.536;2023-06-05T05:31:01;20.60;99.90
11609;DHT22;5860;52.018;8.536;2023-06-05T05:33:29;20.80;99.90
11609;DHT22;5860;52.018;8.536;2023-06-05T05:35:57;20.60;99.90
11609;DHT22;5860;52.018;8.536;2023-06-05T05:38:24;19.80;99.90
11609;DHT22;5860;52.018;8.536;2023-06-05T05:40:51;20.00;99.90
11609;DHT22;5860;52.018;8.536;2023-06-05T05:43:19;20.20;99.90
11609;DHT22;5860;52.018;8.536;2023-06-05T05:45:46;20.80;99.90
11609;DHT22;5860;52.018;8.536;2023-06-05T05:48:13;19.80;99.90
11609;DHT22;5860;52.018;8.536;2023-06-05T05:50:40;19.70;99.90
11609;DHT22;5860;52.018;8.536;2023-06-05T05:53:08;19.40;99.90
11609;DHT22;5860;52.018;8.536;2023-06-05T05:55:35;20.00;99.90
11609;DHT22;5860;52.018;8.536;2023-06-05T05:58:02;19.70;99.90
11609;DHT22;5860;52.018;8.536;2023-06-05T06:00:29;20.60;99.90
11609;DHT22;5860;52.018;8.536;2023-06-05T06:02:56;20.90;99.90
11609;DHT22;5860;52.018;8.536;2023-06-05T06:05:24;20.00;99.90
11609;DHT22;5860;52.018;8.536;2023-06-05T06:07:51;20.40;99.90
11609;DHT22;5860;52.018;8.536;2023-06-05T06:10:18;20.90;99.90
11609;DHT22;5860;52.018;8.536;2023-06-05T06:12:46;20.40;99.90
11609;DHT22;5860;52.018;8.536;2023-06-05T06:15:13;20.70;99.90
11609;DHT22;5860;52.018;8.536;2023-06-05T06:17:40;22.50;99.90
11609;DHT22;5860;52.018;8.536;2023-06-05T06:20:08;23.30;99.90
11609;DHT22;5860;52.018;8.536;2023-06-05T06:22:40;21.90;99.90
11609;DHT22;5860;52.018;8.536;2023-06-05T06:25:09;20.20;99.90
11609;DHT22;5860;52.018;8.536;2023-06-05T06:27:37;20.30;99.90
11609;DHT22;5860;52.018;8.536;2023-06-05T06:30:05;21.20;99.90
11609;DHT22;5860;52.018;8.536;2023-06-05T06:32:34;22.80;99.90
11609;DHT22;5860;52.018;8.536;2023-06-05T06:35:01;21.80;99.90
11609;DHT22;5860;52.018;8.536;2023-06-05T06:37:28;23.20;99.90
11609;DHT22;5860;52.018;8.536;2023-06-05T06:39:55;22.90;99.90
11609;DHT22;5860;52.018;8.536;2023-06-05T06:42:22;22.60;99.90
11609;DHT22;5860;52.018;8.536;2023-06-05T06:44:49;21.70;99.90
11609;DHT22;5860;52.018;8.536;2023-06-05T06:47:22;22.10;99.90
11609;DHT22;5860;52.018;8.536;2023-06-05T06:49:49;23.40;99.90
11609;DHT22;5860;52.018;8.536;2023-06-05T06:52:17;23.10;99.90
11609;DHT22;5860;52.018;8.536;2023-06-05T06:54:50;23.10;99.90
11609;DHT22;5860;52.018;8.536;2023-06-05T06:57:17;23.10;99.90
11609;DHT22;5860;52.018;8.536;2023-06-05T06:59:44;22.80;99.90
11609;DHT22;5860;52.018;8.536;2023-06-05T07:02:18;23.90;99.90
11609;DHT22;5860;52.018;8.536;2023-06-05T07:04:46;23.20;99.90
11609;DHT22;5860;52.018;8.536;2023-06-05T07:07:16;23.40;99.90
11609;DHT22;5860;52.018;8.536;2023-06-05T07:09:44;23.00;99.90
11609;DHT22;5860;52.018;8.536;2023-06-05T07:12:13;23.20;99.90
11609;DHT22;5860;52.018;8.536;2023-06-05T07:14:41;22.70;99.90
11609;DHT22;5860;52.018;8.536;2023-06-05T07:17:09;23.60;99.90
11609;DHT22;5860;52.018;8.536;2023-06-05T07:19:37;23.80;99.90
11609;DHT22;5860;52.018;8.536;2023-06-05T07:22:05;22.80;99.90
11609;DHT22;5860;52.018;8.536;2023-06-05T07:24:34;22.50;99.90
11609;DHT22;5860;52.018;8.536;2023-06-05T07:27:06;24.00;99.90
11609;DHT22;5860;52.018;8.536;2023-06-05T07:29:33;24.00;99.90
11609;DHT22;5860;52.018;8.536;2023-06-05T07:32:00;24.50;99.90
11609;DHT22;5860;52.018;8.536;2023-06-05T07:34:28;22.90;99.90
11609;DHT22;5860;52.018;8.536;2023-06-05T07:36:55;22.80;99.90
11609;DHT22;5860;52.018;8.536;2023-06-05T07:39:23;23.40;99.90
11609;DHT22;5860;52.018;8.536;2023-06-05T07:41:50;23.20;99.90
11609;DHT22;5860;52.018;8.536;2023-06-05T07:44:18;23.10;99.90
11609;DHT22;5860;52.018;8.536;2023-06-05T07:46:47;22.90;99.90
11609;DHT22;5860;52.018;8.536;2023-06-05T07:49:15;23.10;99.90
11609;DHT22;5860;52.018;8.536;2023-06-05T07:51:43;23.00;99.90
11609;DHT22;5860;52.018;8.536;2023-06-05T07:54:12;21.50;99.90
11609;DHT22;5860;52.018;8.536;2023-06-05T07:56:39;22.50;99.90
11609;DHT22;5860;52.018;8.536;2023-06-05T07:59:07;22.70;99.90
11609;DHT22;5860;52.018;8.536;2023-06-05T08:01:36;22.40;99.90
11609;DHT22;5860;52.018;8.536;2023-06-05T08:04:06;22.90;99.90
11609;DHT22;5860;52.018;8.536;2023-06-05T08:06:34;23.20;99.90
11609;DHT22;5860;52.018;8.536;2023-06-05T08:09:05;22.60;99.90
11609;DHT22;5860;52.018;8.536;2023-06-05T08:11:33;23.00;99.90
11609;DHT22;5860;52.018;8.536;2023-06-05T08:14:01;22.40;99.90
11609;DHT22;5860;52.018;8.536;2023-06-05T08:16:31;22.00;99.90
11609;DHT22;5860;52.018;8.536;2023-06-05T08:19:02;22.90;99.90
11609;DHT22;5860;52.018;8.536;2023-06-05T08:21:29;21.90;99.90
11609;DHT22;5860;52.018;8.536;2023-06-05T08:23:57;22.00;99.90
11609;DHT22;5860;52.018;8.536;2023-06-05T08:26:24;22.70;99.90
11609;DHT22;5860;52.018;8.536;2023-06-05T08:28:52;21.50;99.90
11609;DHT22;5860;52.018;8.536;2023-06-05T08:31:20;22.50;99.90
11609;DHT22;5860;52.018;8.536;2023-06-05T08:33:48;21.90;99.90
11609;DHT22;5860;52.018;8.536;2023-06-05T08:36:15;22.80;99.90
11609;DHT22;5860;52.018;8.536;2023-06-05T08:38:43;23.40;99.90
11609;DHT22;5860;52.018;8.536;2023-06-05T08:41:13;23.60;99.90
11609;DHT22;5860;52.018;8.536;2023-06-05T08:43:43;23.10;99.90
11609;DHT22;5860;52.018;8.536;2023-06-05T08:46:14;23.10;99.90
11609;DHT22;5860;52.018;8.536;2023-06-05T08:48:47;23.40;99.90
11609;DHT22;5860;52.018;8.536;2023-06-05T08:51:16;23.00;99.90
11609;DHT22;5860;52.018;8.536;2023-06-05T08:53:57;23.00;99.90
11609;DHT22;5860;52.018;8.536;2023-06-05T08:56:25;23.10;99.90
11609;DHT22;5860;52.018;8.536;2023-06-05T08:58:54;23.30;99.90
11609;DHT22;5860;52.018;8.536;2023-06-05T09:01:22;22.60;99.90
11609;DHT22;5860;52.018;8.536;2023-06-05T09:03:50;22.80;99.90
11609;DHT22;5860;52.018;8.536;2023-06-05T09:06:17;22.70;99.90
11609;DHT22;5860;52.018;8.536;2023-06-05T09:08:44;23.30;99.90
11609;DHT22;5860;52.018;8.536;2023-06-05T09:11:26;23.10;99.90
11609;DHT22;5860;52.018;8.536;2023-06-05T09:14:03;23.40;99.90
11609;DHT22;5860;52.018;8.536;2023-06-05T09:16:43;23.90;99.90
11609;DHT22;5860;52.018;8.536;2023-06-05T09:19:11;23.90;99.90
11609;DHT22;5860;52.018;8.536;2023-06-05T09:21:38;23.70;99.90
11609;DHT22;5860;52.018;8.536;2023-06-05T09:24:17;24.40;99.90
11609;DHT22;5860;52.018;8.536;2023-06-05T09:26:46;24.40;99.10
11609;DHT22;5860;52.018;8.536;2023-06-05T09:29:19;23.30;99.90
11609;DHT22;5860;52.018;8.536;2023-06-05T09:31:46;24.10;98.00
11609;DHT22;5860;52.018;8.536;2023-06-05T09:34:24;24.90;97.70
11609;DHT22;5860;52.018;8.536;2023-06-05T09:36:52;24.10;98.20
11609;DHT22;5860;52.018;8.536;2023-06-05T09:39:22;23.50;97.20
11609;DHT22;5860;52.018;8.536;2023-06-05T09:41:51;23.50;99.70
11609;DHT22;5860;52.018;8.536;2023-06-05T09:44:19;24.00;99.90
11609;DHT22;5860;52.018;8.536;2023-06-05T09:46:58;24.00;98.60
11609;DHT22;5860;52.018;8.536;2023-06-05T09:52:10;23.60;99.50
11609;DHT22;5860;52.018;8.536;2023-06-05T09:54:39;23.90;99.90
11609;DHT22;5860;52.018;8.536;2023-06-05T09:57:08;23.50;99.90
11609;DHT22;5860;52.018;8.536;2023-06-05T09:59:54;23.80;98.50
11609;DHT22;5860;52.018;8.536;2023-06-05T10:02:31;23.90;98.90
11609;DHT22;5860;52.018;8.536;2023-06-05T10:05:04;23.60;97.30
11609;DHT22;5860;52.018;8.536;2023-06-05T10:07:36;24.10;97.30
11609;DHT22;5860;52.018;8.536;2023-06-05T10:10:05;23.80;95.00
11609;DHT22;5860;52.018;8.536;2023-06-05T10:12:33;24.80;93.90
11609;DHT22;5860;52.018;8.536;2023-06-05T10:15:02;24.50;94.70
11609;DHT22;5860;52.018;8.536;2023-06-05T10:17:29;24.80;94.70
11609;DHT22;5860;52.018;8.536;2023-06-05T10:19:57;24.20;94.90
11609;DHT22;5860;52.018;8.536;2023-06-05T10:22:25;23.70;95.10
11609;DHT22;5860;52.018;8.536;2023-06-05T10:24:56;23.30;95.70
11609;DHT22;5860;52.018;8.536;2023-06-05T10:30:41;23.40;94.80
11609;DHT22;5860;52.018;8.536;2023-06-05T10:36:24;23.80;92.50
11609;DHT22;5860;52.018;8.536;2023-06-05T10:38:57;23.50;92.40
11609;DHT22;5860;52.018;8.536;2023-06-05T10:41:30;23.30;92.80
11609;DHT22;5860;52.018;8.536;2023-06-05T10:43:58;23.70;92.20
11609;DHT22;5860;52.018;8.536;2023-06-05T10:46:33;23.50;93.50
11609;DHT22;5860;52.018;8.536;2023-06-05T10:49:13;23.90;93.10
11609;DHT22;5860;52.018;8.536;2023-06-05T10:51:51;23.90;92.60
11609;DHT22;5860;52.018;8.536;2023-06-05T10:59:51;23.70;91.70
11609;DHT22;5860;52.018;8.536;2023-06-05T11:02:46;23.40;92.10
11609;DHT22;5860;52.018;8.536;2023-06-05T11:05:14;23.40;93.50
11609;DHT22;5860;52.018;8.536;2023-06-05T11:07:42;23.20;92.70
11609;DHT22;5860;52.018;8.536;2023-06-05T11:10:13;23.00;92.70
11609;DHT22;5860;52.018;8.536;2023-06-05T11:17:43;23.30;91.80
11609;DHT22;5860;52.018;8.536;2023-06-05T11:25:28;22.90;92.40
11609;DHT22;5860;52.018;8.536;2023-06-05T11:28:01;23.10;89.30
11609;DHT22;5860;52.018;8.536;2023-06-05T11:30:32;22.90;85.90
11609;DHT22;5860;52.018;8.536;2023-06-05T11:33:18;22.80;83.60
11609;DHT22;5860;52.018;8.536;2023-06-05T11:35:49;22.90;81.20
11609;DHT22;5860;52.018;8.536;2023-06-05T11:38:19;23.00;80.20
11609;DHT22;5860;52.018;8.536;2023-06-05T11:40:53;23.00;80.90
11609;DHT22;5860;52.018;8.536;2023-06-05T11:43:21;22.90;80.20
11609;DHT22;5860;52.018;8.536;2023-06-05T11:45:57;23.20;75.70
11609;DHT22;5860;52.018;8.536;2023-06-05T11:48:25;22.90;78.30
11609;DHT22;5860;52.018;8.536;2023-06-05T11:53:24;23.10;75.40
11609;DHT22;5860;52.018;8.536;2023-06-05T11:55:55;23.20;76.60
11609;DHT22;5860;52.018;8.536;2023-06-05T11:58:38;22.80;75.30
11609;DHT22;5860;52.018;8.536;2023-06-05T12:03:39;23.20;74.10
11609;DHT22;5860;52.018;8.536;2023-06-05T12:06:08;23.00;71.70
11609;DHT22;5860;52.018;8.536;2023-06-05T12:08:36;23.20;71.50
11609;DHT22;5860;52.018;8.536;2023-06-05T12:11:04;23.20;71.40
11609;DHT22;5860;52.018;8.536;2023-06-05T12:16:18;23.30;69.40
11609;DHT22;5860;52.018;8.536;2023-06-05T12:18:47;23.30;71.20
11609;DHT22;5860;52.018;8.536;2023-06-05T12:21:31;23.30;69.10
11609;DHT22;5860;52.018;8.536;2023-06-05T12:24:03;23.30;68.60
11609;DHT22;5860;52.018;8.536;2023-06-05T12:27:07;23.60;66.40
11609;DHT22;5860;52.018;8.536;2023-06-05T12:29:37;23.40;67.80
11609;DHT22;5860;52.018;8.536;2023-06-05T12:32:21;23.40;69.90
11609;DHT22;5860;52.018;8.536;2023-06-05T12:34:49;23.50;68.80
11609;DHT22;5860;52.018;8.536;2023-06-05T12:37:31;23.30;66.30
11609;DHT22;5860;52.018;8.536;2023-06-05T12:40:01;23.30;64.60
11609;DHT22;5860;52.018;8.536;2023-06-05T12:42:34;23.10;61.80
11609;DHT22;5860;52.018;8.536;2023-06-05T12:45:05;23.20;62.70
11609;DHT22;5860;52.018;8.536;2023-06-05T12:47:34;23.30;66.00
11609;DHT22;5860;52.018;8.536;2023-06-05T12:50:03;23.20;67.10
11609;DHT22;5860;52.018;8.536;2023-06-05T12:52:31;23.20;68.70
11609;DHT22;5860;52.018;8.536;2023-06-05T12:54:58;23.20;69.00
11609;DHT22;5860;52.018;8.536;2023-06-05T12:57:26;23.30;68.60
11609;DHT22;5860;52.018;8.536;2023-06-05T12:59:54;24.00;69.50
11609;DHT22;5860;52.018;8.536;2023-06-05T13:02:23;23.70;68.40
11609;DHT22;5860;52.018;8.536;2023-06-05T13:04:50;23.90;66.60
11609;DHT22;5860;52.018;8.536;2023-06-05T13:07:18;23.50;66.20
11609;DHT22;5860;52.018;8.536;2023-06-05T13:09:45;23.60;68.50
11609;DHT22;5860;52.018;8.536;2023-06-05T13:12:12;23.80;70.40
11609;DHT22;5860;52.018;8.536;2023-06-05T13:14:39;23.50;70.40
11609;DHT22;5860;52.018;8.536;2023-06-05T13:17:06;24.00;70.00
11609;DHT22;5860;52.018;8.536;2023-06-05T13:19:33;23.90;69.90
11609;DHT22;5860;52.018;8.536;2023-06-05T13:22:01;24.10;71.60
11609;DHT22;5860;52.018;8.536;2023-06-05T13:24:28;24.00;70.00
11609;DHT22;5860;52.018;8.536;2023-06-05T13:26:55;23.80;70.40
11609;DHT22;5860;52.018;8.536;2023-06-05T13:29:22;23.80;69.30
11609;DHT22;5860;52.018;8.536;2023-06-05T13:31:50;23.80;69.80
11609;DHT22;5860;52.018;8.536;2023-06-05T13:34:18;23.80;68.70
11609;DHT22;5860;52.018;8.536;2023-06-05T13:36:45;23.70;67.80
11609;DHT22;5860;52.018;8.536;2023-06-05T13:39:14;23.60;65.80
11609;DHT22;5860;52.018;8.536;2023-06-05T13:41:43;23.90;66.40
11609;DHT22;5860;52.018;8.536;2023-06-05T13:44:10;24.20;68.30
11609;DHT22;5860;52.018;8.536;2023-06-05T13:46:37;23.50;68.90
11609;DHT22;5860;52.018;8.536;2023-06-05T13:49:07;23.50;69.60
11609;DHT22;5860;52.018;8.536;2023-06-05T13:51:34;23.50;70.00
11609;DHT22;5860;52.018;8.536;2023-06-05T13:54:01;23.30;72.40
11609;DHT22;5860;52.018;8.536;2023-06-05T13:56:28;23.60;71.00
11609;DHT22;5860;52.018;8.536;2023-06-05T13:58:55;23.60;69.90
11609;DHT22;5860;52.018;8.536;2023-06-05T14:01:24;23.20;69.40
11609;DHT22;5860;52.018;8.536;2023-06-05T14:03:52;23.20;69.50
11609;DHT22;5860;52.018;8.536;2023-06-05T14:06:19;23.30;69.80
11609;DHT22;5860;52.018;8.536;2023-06-05T14:08:47;23.80;69.00
11609;DHT22;5860;52.018;8.536;2023-06-05T14:11:14;23.50;68.10
11609;DHT22;5860;52.018;8.536;2023-06-05T14:13:41;23.60;68.20
11609;DHT22;5860;52.018;8.536;2023-06-05T14:16:09;23.80;68.90
11609;DHT22;5860;52.018;8.536;2023-06-05T14:18:40;24.20;69.00
11609;DHT22;5860;52.018;8.536;2023-06-05T14:21:07;24.30;66.60
11609;DHT22;5860;52.018;8.536;2023-06-05T14:23:34;24.30;66.50
11609;DHT22;5860;52.018;8.536;2023-06-05T14:26:02;24.00;63.80
11609;DHT22;5860;52.018;8.536;2023-06-05T14:28:29;23.90;63.50
11609;DHT22;5860;52.018;8.536;2023-06-05T14:30:56;23.50;61.50
11609;DHT22;5860;52.018;8.536;2023-06-05T14:33:23;23.60;61.20
11609;DHT22;5860;52.018;8.536;2023-06-05T14:35:50;23.70;61.50
11609;DHT22;5860;52.018;8.536;2023-06-05T14:38:17;23.90;63.00
11609;DHT22;5860;52.018;8.536;2023-06-05T14:40:45;23.80;62.10
11609;DHT22;5860;52.018;8.536;2023-06-05T14:43:11;24.00;61.90
11609;DHT22;5860;52.018;8.536;2023-06-05T14:45:38;24.10;61.70
11609;DHT22;5860;52.018;8.536;2023-06-05T14:48:07;24.10;59.00
11609;DHT22;5860;52.018;8.536;2023-06-05T14:50:37;23.80;59.20
11609;DHT22;5860;52.018;8.536;2023-06-05T14:53:05;23.80;57.90
11609;DHT22;5860;52.018;8.536;2023-06-05T14:55:33;23.70;57.00
11609;DHT22;5860;52.018;8.536;2023-06-05T14:58:01;23.60;56.30
11609;DHT22;5860;52.018;8.536;2023-06-05T15:00:28;23.40;56.40
11609;DHT22;5860;52.018;8.536;2023-06-05T15:02:56;23.60;55.10
11609;DHT22;5860;52.018;8.536;2023-06-05T15:05:24;23.70;54.30
11609;DHT22;5860;52.018;8.536;2023-06-05T15:07:51;23.50;53.90
11609;DHT22;5860;52.018;8.536;2023-06-05T15:10:19;23.90;55.10
11609;DHT22;5860;52.018;8.536;2023-06-05T15:12:46;23.60;51.80
11609;DHT22;5860;52.018;8.536;2023-06-05T15:15:13;23.60;51.90
11609;DHT22;5860;52.018;8.536;2023-06-05T15:17:47;23.50;51.60
11609;DHT22;5860;52.018;8.536;2023-06-05T15:20:15;23.80;50.70
11609;DHT22;5860;52.018;8.536;2023-06-05T15:22:42;23.80;50.80
11609;DHT22;5860;52.018;8.536;2023-06-05T15:25:10;23.70;50.50
11609;DHT22;5860;52.018;8.536;2023-06-05T15:27:38;23.90;50.60
11609;DHT22;5860;52.018;8.536;2023-06-05T15:30:06;24.10;49.60
11609;DHT22;5860;52.018;8.536;2023-06-05T15:32:33;24.00;47.70
11609;DHT22;5860;52.018;8.536;2023-06-05T15:35:01;24.00;46.20
11609;DHT22;5860;52.018;8.536;2023-06-05T15:37:28;23.80;46.50
11609;DHT22;5860;52.018;8.536;2023-06-05T15:39:55;23.90;47.10
11609;DHT22;5860;52.018;8.536;2023-06-05T15:42:43;23.80;45.60
11609;DHT22;5860;52.018;8.536;2023-06-05T15:45:14;23.70;45.30
11609;DHT22;5860;52.018;8.536;2023-06-05T15:47:42;23.80;46.10
11609;DHT22;5860;52.018;8.536;2023-06-05T15:50:09;23.80;47.30
11609;DHT22;5860;52.018;8.536;2023-06-05T15:52:38;23.70;45.20
11609;DHT22;5860;52.018;8.536;2023-06-05T15:55:06;23.60;45.30
11609;DHT22;5860;52.018;8.536;2023-06-05T15:57:33;23.70;46.10
11609;DHT22;5860;52.018;8.536;2023-06-05T16:00:00;23.80;44.70
11609;DHT22;5860;52.018;8.536;2023-06-05T16:02:27;23.70;45.00
11609;DHT22;5860;52.018;8.536;2023-06-05T16:04:54;23.70;44.60
11609;DHT22;5860;52.018;8.536;2023-06-05T16:07:21;23.70;45.10
11609;DHT22;5860;52.018;8.536;2023-06-05T16:09:48;23.90;43.90
11609;DHT22;5860;52.018;8.536;2023-06-05T16:12:15;23.70;43.50
11609;DHT22;5860;52.018;8.536;2023-06-05T16:14:43;23.80;43.90
11609;DHT22;5860;52.018;8.536;2023-06-05T16:17:10;24.00;43.30
11609;DHT22;5860;52.018;8.536;2023-06-05T16:19:37;23.90;42.80
11609;DHT22;5860;52.018;8.536;2023-06-05T16:22:05;23.90;43.20
11609;DHT22;5860;52.018;8.536;2023-06-05T16:24:32;23.70;43.40
11609;DHT22;5860;52.018;8.536;2023-06-05T16:27:00;23.90;44.40
11609;DHT22;5860;52.018;8.536;2023-06-05T16:29:28;23.90;40.20
11609;DHT22;5860;52.018;8.536;2023-06-05T16:31:55;23.90;39.30
11609;DHT22;5860;52.018;8.536;2023-06-05T16:34:22;23.80;36.70
11609;DHT22;5860;52.018;8.536;2023-06-05T16:36:49;23.60;35.40
11609;DHT22;5860;52.018;8.536;2023-06-05T16:39:16;23.70;34.70
11609;DHT22;5860;52.018;8.536;2023-06-05T16:41:44;23.70;34.90